Time;durP1;ratioP1;P1;durP2;ratioP2;P2;SDS_P1;SDS_P2;PMS_P1;PMS_P2;Temp;Humidity;BMP_temperature;BMP_pressure;BME280_temperature;BME280_humidity;BME280_pressure;Samples;Min_cycle;Max_cycle;Signal;HPM_P1;HPM_P2
2024/01/24 00:00:27;;;;;;;9.32;4.95;;;;;;;;;;4996059;28;20057;-83
2024/01/24 00:02:53;;;;;;;8.02;5.28;;;;;;;;;;4996532;28;20054;-83
2024/01/24 00:05:20;;;;;;;8.40;5.35;;;;;;;;;;4996176;28;20054;-84
2024/01/24 00:07:47;;;;;;;9.13;4.70;;;;;;;;;;4996116;28;20050;-83
2024/01/24 00:10:15;;;;;;;12.57;4.85;;;;;;;;;;4996402;28;20061;-83
2024/01/24 00:12:42;;;;;;;7.55;4.45;;;;;;;;;;4996108;28;20054;-83
2024/01/24 00:15:10;;;;;;;12.18;4.70;;;;;;;;;;4995877;28;20061;-82
2024/01/24 00:17:37;;;;;;;9.10;5.22;;;;;;;;;;4996224;28;20054;-83
2024/01/24 00:20:05;;;;;;;7.90;5.55;;;;;;;;;;4995576;28;20059;-83
2024/01/24 00:22:32;;;;;;;11.93;6.10;;;;;;;;;;4995772;28;20065;-82
2024/01/24 00:24:58;;;;;;;9.32;5.32;;;;;;;;;;4995412;28;20423;-83
2024/01/24 00:27:27;;;;;;;11.13;5.70;;;;;;;;;;4995848;28;20049;-83
2024/01/24 00:29:53;;;;;;;9.80;6.15;;;;;;;;;;4996165;28;20077;-83
2024/01/24 00:32:21;;;;;;;7.88;4.72;;;;;;;;;;4977288;28;20058;-83
2024/01/24 00:34:48;;;;;;;7.85;5.22;;;;;;;;;;4976036;28;20058;-83
2024/01/24 00:37:15;;;;;;;8.27;4.78;;;;;;;;;;4976373;28;20051;-83
2024/01/24 00:39:42;;;;;;;9.32;4.38;;;;;;;;;;4976330;28;20059;-83
2024/01/24 00:42:09;;;;;;;7.43;4.95;;;;;;;;;;4976340;28;20377;-83
2024/01/24 00:44:39;;;;;;;10.10;5.55;;;;;;;;;;4976015;28;20055;-83
2024/01/24 00:47:07;;;;;;;7.57;3.83;;;;;;;;;;4976359;28;20062;-83
2024/01/24 00:49:34;;;;;;;7.45;3.92;;;;;;;;;;4976190;28;20062;-83
2024/01/24 00:52:03;;;;;;;7.85;4.15;;;;;;;;;;4976306;28;20476;-83
2024/01/24 00:54:30;;;;;;;7.05;3.53;;;;;;;;;;4975774;28;20428;-83
2024/01/24 00:56:57;;;;;;;6.00;4.18;;;;;;;;;;4976204;28;20106;-84
2024/01/24 00:59:24;;;;;;;7.22;4.88;;;;;;;;;;4975781;28;20054;-81
2024/01/24 01:01:52;;;;;;;5.38;3.60;;;;;;;;;;4975870;28;20063;-81
2024/01/24 01:04:18;;;;;;;4.45;3.30;;;;;;;;;;4975894;28;20061;-82
2024/01/24 01:06:45;;;;;;;6.00;3.58;;;;;;;;;;4976231;28;20069;-82
2024/01/24 01:09:12;;;;;;;5.10;3.03;;;;;;;;;;4976043;28;20062;-82
2024/01/24 01:11:39;;;;;;;5.28;3.50;;;;;;;;;;4975737;28;20394;-81
2024/01/24 01:14:06;;;;;;;5.95;4.40;;;;;;;;;;4975601;28;20501;-82
2024/01/24 01:16:33;;;;;;;6.28;3.67;;;;;;;;;;4975980;28;20065;-82
2024/01/24 01:19:01;;;;;;;6.35;4.50;;;;;;;;;;4975269;28;20058;-82
2024/01/24 01:21:28;;;;;;;6.18;3.53;;;;;;;;;;4975367;28;20084;-82
2024/01/24 01:23:55;;;;;;;6.65;3.95;;;;;;;;;;4974878;28;20058;-82
2024/01/24 01:26:21;;;;;;;5.07;4.07;;;;;;;;;;4975107;28;20055;-82
2024/01/24 01:28:48;;;;;;;6.38;4.20;;;;;;;;;;4975441;28;20051;-82
2024/01/24 01:31:15;;;;;;;6.78;4.45;;;;;;;;;;4975333;28;20492;-83
2024/01/24 01:33:42;;;;;;;7.30;4.00;;;;;;;;;;4975449;28;20472;-82
2024/01/24 01:36:10;;;;;;;7.25;3.92;;;;;;;;;;4975397;28;20059;-82
2024/01/24 01:38:37;;;;;;;7.50;3.92;;;;;;;;;;4975128;28;20050;-83
2024/01/24 01:41:04;;;;;;;9.73;4.40;;;;;;;;;;4975121;28;20054;-82
2024/01/24 01:43:31;;;;;;;6.85;3.72;;;;;;;;;;4974764;28;20063;-82
2024/01/24 01:46:00;;;;;;;6.45;3.67;;;;;;;;;;4974689;28;20055;-82
2024/01/24 01:48:27;;;;;;;;;;;;;;;;;;4975295;28;20055;-82
2024/01/24 01:50:54;;;;;;;5.28;3.45;;;;;;;;;;4975055;28;20299;-82
2024/01/24 01:53:22;;;;;;;8.50;3.80;;;;;;;;;;4974648;28;20416;-82
2024/01/24 01:55:50;;;;;;;9.15;3.88;;;;;;;;;;4974822;28;20516;-81
2024/01/24 01:58:17;;;;;;;8.40;3.53;;;;;;;;;;4972918;28;20066;-82
2024/01/24 02:00:46;;;;;;;6.28;3.50;;;;;;;;;;4955173;29;20055;-82
2024/01/24 02:03:13;;;;;;;5.90;3.28;;;;;;;;;;4955190;29;20498;-81
2024/01/24 02:05:40;;;;;;;5.70;3.35;;;;;;;;;;4938596;29;20059;-82
2024/01/24 02:08:08;;;;;;;4.93;3.05;;;;;;;;;;4955099;29;20078;-81
2024/01/24 02:10:36;;;;;;;5.88;3.38;;;;;;;;;;4955294;29;20062;-81
2024/01/24 02:13:03;;;;;;;4.43;2.42;;;;;;;;;;4955567;29;20066;-81
2024/01/24 02:15:31;;;;;;;7.47;3.30;;;;;;;;;;4955570;29;20077;-81
2024/01/24 02:17:58;;;;;;;6.53;3.20;;;;;;;;;;4955063;28;20047;-81
2024/01/24 02:20:26;;;;;;;5.30;2.83;;;;;;;;;;4955384;29;20055;-81
2024/01/24 02:22:53;;;;;;;6.65;2.70;;;;;;;;;;4955226;29;20059;-81
2024/01/24 02:25:21;;;;;;;5.32;2.83;;;;;;;;;;4955381;28;20055;-82
2024/01/24 02:27:47;;;;;;;5.05;3.00;;;;;;;;;;4954963;29;20136;-81
2024/01/24 02:30:14;;;;;;;5.65;3.08;;;;;;;;;;4955482;28;20417;-81
2024/01/24 02:32:41;;;;;;;4.80;2.65;;;;;;;;;;4974576;28;20055;-81
2024/01/24 02:35:08;;;;;;;5.93;3.45;;;;;;;;;;4974600;28;20051;-81
2024/01/24 02:37:35;;;;;;;5.85;3.00;;;;;;;;;;4974759;28;20059;-81
2024/01/24 02:40:02;;;;;;;8.90;3.38;;;;;;;;;;4974637;28;20062;-81
2024/01/24 02:42:30;;;;;;;7.13;3.28;;;;;;;;;;4974049;28;20061;-81
2024/01/24 02:44:57;;;;;;;5.53;2.83;;;;;;;;;;4974393;28;20054;-81
2024/01/24 02:47:24;;;;;;;4.25;2.88;;;;;;;;;;4974030;28;20055;-81
2024/01/24 02:49:50;;;;;;;6.90;3.05;;;;;;;;;;4974219;28;20489;-81
2024/01/24 02:52:17;;;;;;;6.13;3.13;;;;;;;;;;4973873;28;20055;-80
2024/01/24 02:54:44;;;;;;;4.50;2.47;;;;;;;;;;4974149;28;20055;-81
2024/01/24 02:57:11;;;;;;;5.10;2.75;;;;;;;;;;4977964;28;20062;-80
2024/01/24 02:59:39;;;;;;;5.57;2.55;;;;;;;;;;4978383;28;20062;-81
2024/01/24 03:02:06;;;;;;;6.72;2.58;;;;;;;;;;4978081;28;20492;-81
2024/01/24 03:04:33;;;;;;;6.20;2.47;;;;;;;;;;4977919;28;20062;-81
2024/01/24 03:07:00;;;;;;;4.30;2.28;;;;;;;;;;4978170;28;20055;-81
2024/01/24 03:09:27;;;;;;;4.28;2.20;;;;;;;;;;4977391;28;20062;-81
2024/01/24 03:11:53;;;;;;;4.28;2.20;;;;;;;;;;4977878;28;20058;-80
2024/01/24 03:14:21;;;;;;;3.45;1.70;;;;;;;;;;4977629;28;20062;-80
2024/01/24 03:16:49;;;;;;;2.38;1.70;;;;;;;;;;4977745;28;20081;-81
2024/01/24 03:19:16;;;;;;;2.67;1.60;;;;;;;;;;4978124;28;20062;-80
2024/01/24 03:21:43;;;;;;;2.92;1.60;;;;;;;;;;4982744;28;20091;-81
2024/01/24 03:24:10;;;;;;;4.45;1.60;;;;;;;;;;4997532;28;20403;-81
2024/01/24 03:26:37;;;;;;;3.53;1.60;;;;;;;;;;4997565;28;20054;-80
2024/01/24 03:29:03;;;;;;;4.78;1.50;;;;;;;;;;4997230;28;20057;-81
2024/01/24 03:31:30;;;;;;;2.10;1.40;;;;;;;;;;4997088;28;20061;-80
2024/01/24 03:33:58;;;;;;;3.05;1.17;;;;;;;;;;4997367;28;20054;-80
2024/01/24 03:36:25;;;;;;;3.17;1.35;;;;;;;;;;4997308;28;20054;-80
2024/01/24 03:38:52;;;;;;;2.20;1.35;;;;;;;;;;4997059;28;20055;-80
2024/01/24 03:41:19;;;;;;;2.63;1.25;;;;;;;;;;4996623;28;20054;-80
2024/01/24 03:43:47;;;;;;;1.98;0.80;;;;;;;;;;4996898;28;20054;-80
2024/01/24 03:46:18;;;;;;;1.52;1.00;;;;;;;;;;4997307;28;20050;-80
2024/01/24 03:48:45;;;;;;;1.92;1.00;;;;;;;;;;4997503;28;20066;-80
2024/01/24 03:51:13;;;;;;;2.22;1.10;;;;;;;;;;4996818;28;20061;-79
2024/01/24 03:53:40;;;;;;;2.30;1.10;;;;;;;;;;4997297;28;20051;-79
2024/01/24 03:56:07;;;;;;;2.55;1.00;;;;;;;;;;4996481;28;20061;-80
2024/01/24 03:58:35;;;;;;;2.40;1.00;;;;;;;;;;4996624;28;20062;-80
2024/01/24 04:01:01;;;;;;;2.33;1.15;;;;;;;;;;4996803;28;20057;-80
2024/01/24 04:03:28;;;;;;;2.05;0.77;;;;;;;;;;4996702;28;20058;-80
2024/01/24 04:05:55;;;;;;;4.75;1.10;;;;;;;;;;4996414;28;20054;-79
2024/01/24 04:08:24;;;;;;;2.47;1.40;;;;;;;;;;4995842;28;20054;-80
2024/01/24 04:10:50;;;;;;;3.50;1.60;;;;;;;;;;4996286;28;20061;-79
2024/01/24 04:13:17;;;;;;;1.80;1.40;;;;;;;;;;4996162;28;20058;-79
2024/01/24 04:15:44;;;;;;;4.65;1.20;;;;;;;;;;4995825;28;20066;-79
2024/01/24 04:18:11;;;;;;;2.38;1.30;;;;;;;;;;4996260;28;20046;-80
2024/01/24 04:20:39;;;;;;;2.70;1.30;;;;;;;;;;4996353;28;20061;-80
2024/01/24 04:23:05;;;;;;;2.22;1.00;;;;;;;;;;4995498;28;20065;-80
2024/01/24 04:25:34;;;;;;;3.67;1.30;;;;;;;;;;4996153;28;20061;-80
2024/01/24 04:28:00;;;;;;;4.28;1.40;;;;;;;;;;4995804;28;20050;-81
2024/01/24 04:30:27;;;;;;;2.33;1.40;;;;;;;;;;4995660;28;20055;-81
2024/01/24 04:32:54;;;;;;;2.55;1.10;;;;;;;;;;4996108;28;20061;-81
2024/01/24 04:35:21;;;;;;;3.17;0.90;;;;;;;;;;4995829;28;20080;-82
2024/01/24 04:37:48;;;;;;;2.78;0.90;;;;;;;;;;4995855;28;20138;-82
2024/01/24 04:40:14;;;;;;;2.50;0.95;;;;;;;;;;4995870;28;20054;-81
2024/01/24 04:42:43;;;;;;;2.95;0.68;;;;;;;;;;4995790;28;20061;-81
2024/01/24 04:45:10;;;;;;;1.58;0.80;;;;;;;;;;4995412;28;20054;-81
2024/01/24 04:47:42;;;;;;;2.65;0.90;;;;;;;;;;4995413;28;20073;-81
2024/01/24 04:50:10;;;;;;;2.45;0.73;;;;;;;;;;4995300;28;20057;-81
2024/01/24 04:52:37;;;;;;;3.10;1.17;;;;;;;;;;4995510;28;20065;-81
2024/01/24 04:55:04;;;;;;;1.48;0.80;;;;;;;;;;4995635;28;20058;-82
2024/01/24 04:57:30;;;;;;;3.17;1.38;;;;;;;;;;4995560;28;20058;-82
2024/01/24 04:59:59;;;;;;;3.10;1.00;;;;;;;;;;4995082;28;20050;-82
2024/01/24 05:02:25;;;;;;;3.13;1.10;;;;;;;;;;4995290;28;20058;-82
2024/01/24 05:04:52;;;;;;;4.95;1.25;;;;;;;;;;4995426;28;20502;-82
2024/01/24 05:07:19;;;;;;;2.88;0.90;;;;;;;;;;4995034;28;20057;-82
2024/01/24 05:09:46;;;;;;;3.97;0.90;;;;;;;;;;4994948;28;20424;-82
2024/01/24 05:12:13;;;;;;;2.10;0.80;;;;;;;;;;4995221;28;20411;-82
2024/01/24 05:14:40;;;;;;;2.85;1.27;;;;;;;;;;4995293;28;20061;-82
2024/01/24 05:17:08;;;;;;;3.15;1.60;;;;;;;;;;4995234;28;20050;-82
2024/01/24 05:19:35;;;;;;;3.55;1.30;;;;;;;;;;4995288;28;20065;-82
2024/01/24 05:22:02;;;;;;;2.40;1.00;;;;;;;;;;4995040;28;20061;-82
2024/01/24 05:24:28;;;;;;;4.20;1.00;;;;;;;;;;4994940;28;20484;-82
2024/01/24 05:26:55;;;;;;;3.35;1.30;;;;;;;;;;4995023;28;20058;-82
2024/01/24 05:29:22;;;;;;;4.57;1.10;;;;;;;;;;4995619;28;20408;-83
2024/01/24 05:31:49;;;;;;;3.05;0.95;;;;;;;;;;4981934;28;20493;-82
2024/01/24 05:34:17;;;;;;;3.70;1.25;;;;;;;;;;4975501;28;20055;-82
2024/01/24 05:36:44;;;;;;;5.00;1.40;;;;;;;;;;4975509;28;20058;-82
2024/01/24 05:39:11;;;;;;;5.88;2.25;;;;;;;;;;4975562;28;20055;-82
2024/01/24 05:41:37;;;;;;;4.78;1.50;;;;;;;;;;4975417;28;20055;-82
2024/01/24 05:44:04;;;;;;;9.07;1.85;;;;;;;;;;4975322;28;20058;-82
2024/01/24 05:46:31;;;;;;;7.95;2.13;;;;;;;;;;4975015;28;20061;-82
2024/01/24 05:49:00;;;;;;;10.65;2.10;;;;;;;;;;4975591;28;20168;-82
2024/01/24 05:51:28;;;;;;;7.30;2.07;;;;;;;;;;4974849;28;20488;-82
2024/01/24 05:53:55;;;;;;;11.23;2.10;;;;;;;;;;4974978;28;20106;-81
2024/01/24 05:56:22;;;;;;;9.82;2.53;;;;;;;;;;4974750;28;20055;-81
2024/01/24 05:58:49;;;;;;;10.48;2.65;;;;;;;;;;4975075;28;20420;-81
2024/01/24 06:01:16;;;;;;;10.10;3.00;;;;;;;;;;4974569;28;20416;-81
2024/01/24 06:03:44;;;;;;;9.25;2.80;;;;;;;;;;4975188;28;20051;-81
2024/01/24 06:06:11;;;;;;;12.57;2.80;;;;;;;;;;4974813;28;20055;-81
2024/01/24 06:08:39;;;;;;;11.75;2.75;;;;;;;;;;4974750;28;20058;-81
2024/01/24 06:11:07;;;;;;;12.77;2.77;;;;;;;;;;4974347;28;20360;-80
2024/01/24 06:13:33;;;;;;;10.90;2.67;;;;;;;;;;4974050;28;20058;-80
2024/01/24 06:16:00;;;;;;;14.45;3.00;;;;;;;;;;4974635;28;20055;-80
2024/01/24 06:18:27;;;;;;;10.85;2.65;;;;;;;;;;4974770;28;20062;-80
2024/01/24 06:20:54;;;;;;;10.32;3.03;;;;;;;;;;4974126;28;20047;-80
2024/01/24 06:23:21;;;;;;;9.18;2.70;;;;;;;;;;4974064;28;20057;-80
2024/01/24 06:25:49;;;;;;;11.90;3.33;;;;;;;;;;4974645;28;20572;-80
2024/01/24 06:28:16;;;;;;;13.13;3.20;;;;;;;;;;4974183;28;20058;-79
2024/01/24 06:30:42;;;;;;;10.50;2.60;;;;;;;;;;4973944;28;20058;-80
2024/01/24 06:33:09;;;;;;;9.35;3.15;;;;;;;;;;4974062;28;20061;-79
2024/01/24 06:35:36;;;;;;;11.10;2.80;;;;;;;;;;4974076;28;20066;-80
2024/01/24 06:38:03;;;;;;;11.43;3.33;;;;;;;;;;4974451;28;20058;-80
2024/01/24 06:40:30;;;;;;;13.80;3.30;;;;;;;;;;4974371;28;20047;-80
2024/01/24 06:42:58;;;;;;;14.48;3.70;;;;;;;;;;4973712;28;20050;-80
2024/01/24 06:45:25;;;;;;;8.25;3.00;;;;;;;;;;4973993;28;20378;-80
2024/01/24 06:47:51;;;;;;;10.77;3.20;;;;;;;;;;4974162;28;20058;-80
2024/01/24 06:50:18;;;;;;;11.93;2.92;;;;;;;;;;4974120;28;20047;-80
2024/01/24 06:52:45;;;;;;;11.38;3.53;;;;;;;;;;4974129;28;20062;-79
2024/01/24 06:55:13;;;;;;;13.18;4.10;;;;;;;;;;4973963;28;20065;-80
2024/01/24 06:57:40;;;;;;;15.77;3.88;;;;;;;;;;4974005;28;20507;-80
2024/01/24 07:00:09;;;;;;;13.65;3.45;;;;;;;;;;4974099;28;20416;-79
2024/01/24 07:02:36;;;;;;;12.35;3.50;;;;;;;;;;4974073;28;20514;-80
2024/01/24 07:05:03;;;;;;;19.45;4.35;;;;;;;;;;4974572;28;20058;-80
2024/01/24 07:07:30;;;;;;;18.48;4.10;;;;;;;;;;4973979;28;20051;-80
2024/01/24 07:09:57;;;;;;;14.38;3.42;;;;;;;;;;4973907;28;20059;-80
2024/01/24 07:12:24;;;;;;;19.33;4.32;;;;;;;;;;4974047;28;20135;-80
2024/01/24 07:14:51;;;;;;;17.80;4.32;;;;;;;;;;4974003;28;20054;-79
2024/01/24 07:17:19;;;;;;;18.23;4.57;;;;;;;;;;4973985;28;20055;-79
2024/01/24 07:19:45;;;;;;;17.08;4.30;;;;;;;;;;4974271;28;20055;-80
2024/01/24 07:22:12;;;;;;;15.98;4.53;;;;;;;;;;4982445;28;20066;-80
2024/01/24 07:24:43;;;;;;;19.73;4.57;;;;;;;;;;4993401;28;20054;-80
2024/01/24 07:27:10;;;;;;;16.42;4.40;;;;;;;;;;4993696;28;20062;-80
2024/01/24 07:29:36;;;;;;;17.58;3.88;;;;;;;;;;4993508;28;20061;-80
2024/01/24 07:32:03;;;;;;;11.07;4.15;;;;;;;;;;4993290;28;20057;-80
2024/01/24 07:34:31;;;;;;;17.85;4.03;;;;;;;;;;4993048;28;20055;-80
2024/01/24 07:36:58;;;;;;;14.50;4.20;;;;;;;;;;4993449;28;20070;-80
2024/01/24 07:39:25;;;;;;;16.45;4.93;;;;;;;;;;4993595;28;20050;-80
2024/01/24 07:41:52;;;;;;;20.10;4.78;;;;;;;;;;4995137;28;20050;-80
2024/01/24 07:44:19;;;;;;;19.20;4.32;;;;;;;;;;4997367;28;20061;-80
2024/01/24 07:46:46;;;;;;;18.40;4.80;;;;;;;;;;4997000;28;20054;-80
2024/01/24 07:49:13;;;;;;;19.38;5.57;;;;;;;;;;4997380;28;20065;-79
2024/01/24 07:51:41;;;;;;;18.63;5.22;;;;;;;;;;4996859;28;20131;-79
2024/01/24 07:54:09;;;;;;;17.83;5.18;;;;;;;;;;4997417;28;20081;-80
2024/01/24 07:56:36;;;;;;;16.60;5.13;;;;;;;;;;4996987;28;20484;-80
2024/01/24 07:59:04;;;;;;;19.33;5.30;;;;;;;;;;4997102;28;20496;-80
2024/01/24 08:01:30;;;;;;;23.33;5.78;;;;;;;;;;4996741;28;20050;-79
2024/01/24 08:03:58;;;;;;;17.95;5.93;;;;;;;;;;4996638;28;20062;-80
2024/01/24 08:06:25;;;;;;;26.55;6.15;;;;;;;;;;4996651;28;20061;-80
2024/01/24 08:08:53;;;;;;;22.75;5.47;;;;;;;;;;4997397;28;20053;-80
2024/01/24 08:11:21;;;;;;;22.45;5.60;;;;;;;;;;4997152;28;20349;-80
2024/01/24 08:13:48;;;;;;;28.48;5.85;;;;;;;;;;4979364;28;20059;-81
2024/01/24 08:16:18;;;;;;;20.30;5.45;;;;;;;;;;4996946;28;20061;-80
2024/01/24 08:18:44;;;;;;;22.20;5.65;;;;;;;;;;4996898;28;20058;-80
2024/01/24 08:21:12;;;;;;;21.55;5.47;;;;;;;;;;4996369;28;20054;-80
2024/01/24 08:23:38;;;;;;;24.80;6.05;;;;;;;;;;4996884;28;20385;-80
2024/01/24 08:26:09;;;;;;;22.33;6.20;;;;;;;;;;4996631;28;20058;-80
2024/01/24 08:28:36;;;;;;;24.45;6.57;;;;;;;;;;4996527;28;20081;-80
2024/01/24 08:31:03;;;;;;;25.73;6.40;;;;;;;;;;4989443;28;20402;-80
2024/01/24 08:33:32;;;;;;;22.52;6.05;;;;;;;;;;4976874;28;20054;-80
2024/01/24 08:35:59;;;;;;;26.90;6.40;;;;;;;;;;4977344;28;20070;-80
2024/01/24 08:38:26;;;;;;;24.90;6.80;;;;;;;;;;4977129;28;20801;-80
2024/01/24 08:40:53;;;;;;;23.13;5.90;;;;;;;;;;4977118;28;20047;-80
2024/01/24 08:43:21;;;;;;;24.25;5.70;;;;;;;;;;4977247;28;20058;-79
2024/01/24 08:45:48;;;;;;;22.67;6.00;;;;;;;;;;4976767;28;20063;-80
2024/01/24 08:48:15;;;;;;;24.60;5.75;;;;;;;;;;4977516;28;20066;-80
2024/01/24 08:50:42;;;;;;;24.30;6.25;;;;;;;;;;4979487;28;20047;-80
2024/01/24 08:53:08;;;;;;;24.02;5.88;;;;;;;;;;4996294;28;20063;-79
2024/01/24 08:55:35;;;;;;;24.15;6.10;;;;;;;;;;4999339;28;20042;-80
2024/01/24 08:58:02;;;;;;;18.00;5.65;;;;;;;;;;4998881;28;20521;-79
2024/01/24 09:00:30;;;;;;;25.38;6.63;;;;;;;;;;4999036;28;20061;-79
2024/01/24 09:02:58;;;;;;;18.17;5.78;;;;;;;;;;4987641;28;20054;-79
2024/01/24 09:05:25;;;;;;;20.75;5.72;;;;;;;;;;4976512;28;20057;-79
2024/01/24 09:07:52;;;;;;;23.00;5.75;;;;;;;;;;4976071;28;20062;-79
2024/01/24 09:10:19;;;;;;;20.33;5.40;;;;;;;;;;4976018;28;20066;-79
2024/01/24 09:12:46;;;;;;;21.40;5.78;;;;;;;;;;4976161;28;20055;-79
2024/01/24 09:15:13;;;;;;;22.48;5.43;;;;;;;;;;4976001;28;20055;-79
2024/01/24 09:17:41;;;;;;;19.83;5.65;;;;;;;;;;4975779;28;20059;-79
2024/01/24 09:20:09;;;;;;;18.95;5.20;;;;;;;;;;4975977;28;20065;-79
2024/01/24 09:22:36;;;;;;;23.38;5.60;;;;;;;;;;4975219;28;20058;-78
2024/01/24 09:25:03;;;;;;;18.20;5.78;;;;;;;;;;4975512;28;20424;-79
2024/01/24 09:27:30;;;;;;;23.38;6.45;;;;;;;;;;4974903;28;20050;-79
2024/01/24 09:29:57;;;;;;;19.55;6.38;;;;;;;;;;4975498;28;20050;-79
2024/01/24 09:32:24;;;;;;;21.23;6.07;;;;;;;;;;4975176;28;20062;-79
2024/01/24 09:34:52;;;;;;;23.70;5.43;;;;;;;;;;4975088;28;20054;-78
2024/01/24 09:37:20;;;;;;;21.48;5.53;;;;;;;;;;4975332;28;20476;-78
2024/01/24 09:39:47;;;;;;;21.15;5.50;;;;;;;;;;4975307;28;20066;-78
2024/01/24 09:42:18;;;;;;;29.73;6.85;;;;;;;;;;4975083;28;20054;-78
2024/01/24 09:44:47;;;;;;;20.38;5.20;;;;;;;;;;4975414;28;20051;-78
2024/01/24 09:47:14;;;;;;;23.63;5.95;;;;;;;;;;4974922;28;20051;-78
2024/01/24 09:49:41;;;;;;;22.58;6.05;;;;;;;;;;4975533;28;20051;-78
2024/01/24 09:52:10;;;;;;;20.40;6.07;;;;;;;;;;4974822;28;20058;-78
2024/01/24 09:54:37;;;;;;;25.13;6.05;;;;;;;;;;4974774;28;20055;-78
2024/01/24 09:57:04;;;;;;;21.58;5.65;;;;;;;;;;4974678;28;20067;-78
2024/01/24 09:59:31;;;;;;;22.85;6.78;;;;;;;;;;4974658;28;20054;-78
2024/01/24 10:01:58;;;;;;;20.60;5.95;;;;;;;;;;4974541;28;20066;-78
2024/01/24 10:04:26;;;;;;;22.58;6.35;;;;;;;;;;4974265;28;20055;-78
2024/01/24 10:06:53;;;;;;;26.17;6.57;;;;;;;;;;4974162;28;20062;-78
2024/01/24 10:09:21;;;;;;;19.30;6.00;;;;;;;;;;4974954;28;20082;-78
2024/01/24 10:11:48;;;;;;;25.42;7.10;;;;;;;;;;4974072;28;20050;-78
2024/01/24 10:14:15;;;;;;;24.08;6.50;;;;;;;;;;4974795;28;20062;-77
2024/01/24 10:16:42;;;;;;;24.83;6.32;;;;;;;;;;4974376;28;20503;-78
2024/01/24 10:19:09;;;;;;;22.02;6.05;;;;;;;;;;4974756;28;20058;-78
2024/01/24 10:21:35;;;;;;;27.92;6.90;;;;;;;;;;4978048;28;20069;-78
2024/01/24 10:24:04;;;;;;;22.98;6.43;;;;;;;;;;4994044;28;20476;-78
2024/01/24 10:26:33;;;;;;;25.17;6.25;;;;;;;;;;4993615;28;20058;-77
2024/01/24 10:29:00;;;;;;;;;;;;;;;;;;4994419;28;20062;-78
2024/01/24 10:31:27;;;;;;;23.52;6.30;;;;;;;;;;4993295;28;19921;-77
2024/01/24 10:33:54;;;;;;;26.98;6.03;;;;;;;;;;4993736;28;20065;-78
2024/01/24 10:36:21;;;;;;;25.50;6.45;;;;;;;;;;4993570;28;20050;-78
2024/01/24 10:38:49;;;;;;;25.90;6.43;;;;;;;;;;4993409;28;20058;-78
2024/01/24 10:41:16;;;;;;;20.55;5.60;;;;;;;;;;4993466;28;20050;-77
2024/01/24 10:43:47;;;;;;;27.38;6.97;;;;;;;;;;4993444;28;20054;-77
2024/01/24 10:46:15;;;;;;;24.73;6.28;;;;;;;;;;4993517;28;20058;-78
2024/01/24 10:48:42;;;;;;;24.05;6.53;;;;;;;;;;4993374;28;20050;-77
2024/01/24 10:51:09;;;;;;;28.08;7.50;;;;;;;;;;4993237;28;20046;-77
2024/01/24 10:53:37;;;;;;;19.60;5.60;;;;;;;;;;4993455;28;20058;-77
2024/01/24 10:56:05;;;;;;;24.20;6.80;;;;;;;;;;4992964;28;20054;-77
2024/01/24 10:58:32;;;;;;;24.15;6.78;;;;;;;;;;4993420;28;20058;-77
2024/01/24 11:01:01;;;;;;;27.52;6.82;;;;;;;;;;4992936;28;20054;-78
2024/01/24 11:03:28;;;;;;;23.63;6.88;;;;;;;;;;4993096;28;20059;-78
2024/01/24 11:05:56;;;;;;;23.25;6.45;;;;;;;;;;4993019;28;20057;-77
2024/01/24 11:08:25;;;;;;;24.77;7.05;;;;;;;;;;4993260;28;20065;-77
2024/01/24 11:10:53;;;;;;;23.52;6.10;;;;;;;;;;4993661;28;20050;-77
2024/01/24 11:13:21;;;;;;;26.25;6.50;;;;;;;;;;4992946;28;20050;-77
2024/01/24 11:15:48;;;;;;;31.92;7.07;;;;;;;;;;4992947;28;20506;-78
2024/01/24 11:18:22;;;;;;;25.40;7.47;;;;;;;;;;4997119;28;20050;-77
2024/01/24 11:20:51;;;;;;;27.95;6.85;;;;;;;;;;4997205;28;20499;-77
2024/01/24 11:23:40;;;;;;;24.05;6.63;;;;;;;;;;4996842;28;20154;-77
2024/01/24 11:26:07;;;;;;;25.75;6.20;;;;;;;;;;4996907;28;20509;-77
2024/01/24 11:28:35;;;;;;;33.33;6.95;;;;;;;;;;4997358;28;20062;-77
2024/01/24 11:31:01;;;;;;;26.17;6.25;;;;;;;;;;4996610;28;20061;-77
2024/01/24 11:33:30;;;;;;;25.25;6.80;;;;;;;;;;4996123;28;20061;-77
2024/01/24 11:35:57;;;;;;;24.02;6.05;;;;;;;;;;4996499;28;20054;-77
2024/01/24 11:38:33;;;;;;;24.98;6.20;;;;;;;;;;4996727;28;20057;-77
2024/01/24 11:41:01;;;;;;;26.50;6.18;;;;;;;;;;4996584;28;20054;-77
2024/01/24 11:43:28;;;;;;;25.13;6.22;;;;;;;;;;4996611;28;20396;-78
2024/01/24 11:45:56;;;;;;;23.50;6.22;;;;;;;;;;4996228;28;20055;-77
2024/01/24 11:48:22;;;;;;;27.77;6.78;;;;;;;;;;4996013;28;20058;-78
2024/01/24 11:50:55;;;;;;;24.00;6.30;;;;;;;;;;4996269;28;20106;-77
2024/01/24 11:53:22;;;;;;;24.77;6.95;;;;;;;;;;4996574;28;20054;-77
2024/01/24 11:55:51;;;;;;;27.92;6.47;;;;;;;;;;4996180;28;20483;-77
2024/01/24 11:58:17;;;;;;;28.47;6.40;;;;;;;;;;4996143;28;20057;-78
2024/01/24 12:00:44;;;;;;;27.27;6.18;;;;;;;;;;4996292;28;20443;-77
2024/01/24 12:03:15;;;;;;;22.35;5.75;;;;;;;;;;4996055;28;20058;-77
2024/01/24 12:05:42;;;;;;;27.92;7.15;;;;;;;;;;4996681;28;20500;-77
2024/01/24 12:08:10;;;;;;;24.17;5.88;;;;;;;;;;4996248;28;20427;-78
2024/01/24 12:10:37;;;;;;;27.40;6.60;;;;;;;;;;4995651;28;20054;-78
2024/01/24 12:13:05;;;;;;;27.38;6.70;;;;;;;;;;4995552;28;20424;-77
2024/01/24 12:15:33;;;;;;;18.90;5.85;;;;;;;;;;4996007;28;20431;-78
2024/01/24 12:18:04;;;;;;;21.05;6.97;;;;;;;;;;4995759;28;20054;-77
2024/01/24 12:20:31;;;;;;;23.08;6.43;;;;;;;;;;4995812;28;20062;-78
2024/01/24 12:22:58;;;;;;;22.13;5.68;;;;;;;;;;4995427;28;20050;-78
2024/01/24 12:25:27;;;;;;;20.70;6.20;;;;;;;;;;4995583;28;20117;-79
2024/01/24 12:27:56;;;;;;;25.63;6.80;;;;;;;;;;4995010;28;20352;-78
2024/01/24 12:30:23;;;;;;;24.92;6.50;;;;;;;;;;4994320;28;20059;-79
2024/01/24 12:32:54;;;;;;;29.25;6.65;;;;;;;;;;4976217;28;20402;-79
2024/01/24 12:35:21;;;;;;;17.55;5.47;;;;;;;;;;4976104;28;20055;-79
2024/01/24 12:37:47;;;;;;;25.83;6.22;;;;;;;;;;4975978;28;20055;-79
2024/01/24 12:40:15;;;;;;;20.05;5.03;;;;;;;;;;4976099;28;20423;-79
2024/01/24 12:42:44;;;;;;;25.67;5.88;;;;;;;;;;4975940;28;20062;-80
2024/01/24 12:45:12;;;;;;;22.73;5.50;;;;;;;;;;4976343;28;20074;-79
2024/01/24 12:47:39;;;;;;;24.52;5.93;;;;;;;;;;4975912;28;20408;-80
2024/01/24 12:50:06;;;;;;;20.17;5.68;;;;;;;;;;4975794;28;20065;-79
2024/01/24 12:52:32;;;;;;;20.00;5.68;;;;;;;;;;4974014;28;20062;-79
2024/01/24 12:54:59;;;;;;;24.55;6.10;;;;;;;;;;4974985;28;20059;-79
2024/01/24 12:57:27;;;;;;;26.55;6.45;;;;;;;;;;4975791;28;20143;-79
2024/01/24 12:59:57;;;;;;;23.15;5.53;;;;;;;;;;4975699;28;20058;-80
2024/01/24 13:02:25;;;;;;;24.20;6.78;;;;;;;;;;4976104;28;20055;-79
2024/01/24 13:04:52;;;;;;;21.35;6.05;;;;;;;;;;4975915;28;20062;-79
2024/01/24 13:07:19;;;;;;;24.58;6.07;;;;;;;;;;4975109;28;20143;-79
2024/01/24 13:09:46;;;;;;;27.70;5.72;;;;;;;;;;4975603;28;20161;-80
2024/01/24 13:12:13;;;;;;;24.92;6.45;;;;;;;;;;4975805;28;20511;-79
2024/01/24 13:14:40;;;;;;;24.83;5.97;;;;;;;;;;4975315;28;20385;-80
2024/01/24 13:17:09;;;;;;;21.35;5.15;;;;;;;;;;4975106;28;20055;-79
2024/01/24 13:19:36;;;;;;;22.02;5.93;;;;;;;;;;4975418;28;20059;-80
2024/01/24 13:22:03;;;;;;;21.33;5.65;;;;;;;;;;4974960;28;20078;-80
2024/01/24 13:24:29;;;;;;;23.38;5.80;;;;;;;;;;4975151;28;20126;-79
2024/01/24 13:26:57;;;;;;;19.10;5.97;;;;;;;;;;4975344;28;20059;-79
2024/01/24 13:29:24;;;;;;;25.45;6.22;;;;;;;;;;4975430;28;20066;-79
2024/01/24 13:31:51;;;;;;;22.88;5.50;;;;;;;;;;4974961;28;20054;-80
2024/01/24 13:34:19;;;;;;;19.20;5.75;;;;;;;;;;4975679;28;20054;-80
2024/01/24 13:36:46;;;;;;;18.35;5.15;;;;;;;;;;4975223;28;20058;-80
2024/01/24 13:39:14;;;;;;;21.60;5.05;;;;;;;;;;4975332;28;20054;-80
2024/01/24 13:41:41;;;;;;;17.50;5.20;;;;;;;;;;4975003;28;20066;-80
2024/01/24 13:44:08;;;;;;;20.42;4.97;;;;;;;;;;4975205;28;20065;-80
2024/01/24 13:46:35;;;;;;;17.95;5.20;;;;;;;;;;4974522;28;20054;-80
2024/01/24 13:49:03;;;;;;;21.75;5.22;;;;;;;;;;4975533;28;20353;-80
2024/01/24 13:51:31;;;;;;;18.00;4.70;;;;;;;;;;4974949;28;20070;-80
2024/01/24 13:53:58;;;;;;;22.13;4.55;;;;;;;;;;4957424;28;20054;-79
2024/01/24 13:56:25;;;;;;;17.00;4.65;;;;;;;;;;4974711;28;20445;-80
2024/01/24 13:58:52;;;;;;;17.23;4.30;;;;;;;;;;4974552;28;20059;-79
2024/01/24 14:01:19;;;;;;;18.02;5.50;;;;;;;;;;4974358;28;20051;-80
2024/01/24 14:03:47;;;;;;;14.43;4.32;;;;;;;;;;4973997;28;20409;-80
2024/01/24 14:06:16;;;;;;;22.15;6.28;;;;;;;;;;4974752;28;20054;-80
2024/01/24 14:08:44;;;;;;;19.17;4.85;;;;;;;;;;4974536;28;20357;-80
2024/01/24 14:11:12;;;;;;;18.88;4.82;;;;;;;;;;4974618;28;20515;-80
2024/01/24 14:13:39;;;;;;;19.73;5.22;;;;;;;;;;4974331;28;20076;-79
2024/01/24 14:16:06;;;;;;;19.98;5.07;;;;;;;;;;4973949;28;20054;-79
2024/01/24 14:18:33;;;;;;;17.55;4.82;;;;;;;;;;4974418;28;20169;-79
2024/01/24 14:20:59;;;;;;;18.35;5.50;;;;;;;;;;4974041;28;20058;-79
2024/01/24 14:23:26;;;;;;;17.23;5.18;;;;;;;;;;4974499;28;20544;-79
2024/01/24 14:25:54;;;;;;;18.17;4.72;;;;;;;;;;4974202;28;20054;-79
2024/01/24 14:28:21;;;;;;;19.15;5.15;;;;;;;;;;4974007;28;20055;-79
2024/01/24 14:30:48;;;;;;;19.73;4.93;;;;;;;;;;4973968;28;20479;-79
2024/01/24 14:33:15;;;;;;;17.58;5.07;;;;;;;;;;4973862;28;20078;-79
2024/01/24 14:35:42;;;;;;;18.77;4.78;;;;;;;;;;4973586;28;20047;-78